createdAt,value
2023-03-18T00:00:12.787Z,23.70
2023-03-18T00:02:43.347Z,29.20
2023-03-18T00:05:13.001Z,29.57
2023-03-18T00:07:41.594Z,20.10
2023-03-18T00:10:12.402Z,25.87
2023-03-18T00:12:42.229Z,20.70
2023-03-18T00:15:12.882Z,30.63
2023-03-18T00:17:42.587Z,25.63
2023-03-18T00:20:13.109Z,16.77
2023-03-18T00:22:43.388Z,19.63
2023-03-18T00:25:13.878Z,33.53
2023-03-18T00:27:42.403Z,31.30
2023-03-18T00:30:12.423Z,29.43
2023-03-18T00:32:42.612Z,21.07
2023-03-18T00:35:12.241Z,23.83
2023-03-18T00:37:40.833Z,17.67
2023-03-18T00:40:17.293Z,26.67
2023-03-18T00:42:50.625Z,21.00
2023-03-18T00:45:19.485Z,26.33
2023-03-18T00:47:49.513Z,24.63
2023-03-18T00:50:18.371Z,18.70
2023-03-18T00:52:47.411Z,31.03
2023-03-18T00:55:15.818Z,28.17
2023-03-18T00:57:44.057Z,23.03
2023-03-18T01:00:13.417Z,38.17
2023-03-18T01:02:43.095Z,26.80
2023-03-18T01:05:15.216Z,47.17
2023-03-18T01:07:43.582Z,29.10
2023-03-18T01:10:14.604Z,31.70
2023-03-18T01:12:43.183Z,28.70
2023-03-18T01:15:13.864Z,24.97
2023-03-18T01:17:42.554Z,16.70
2023-03-18T01:20:13.952Z,25.13
2023-03-18T01:22:42.631Z,26.97
2023-03-18T01:25:11.784Z,36.77
2023-03-18T01:27:40.987Z,20.80
2023-03-18T01:30:10.544Z,31.83
2023-03-18T01:32:39.126Z,25.83
2023-03-18T01:35:08.526Z,17.43
2023-03-18T01:37:38.205Z,18.00
2023-03-18T01:40:08.996Z,29.83
2023-03-18T01:42:37.685Z,28.90
2023-03-18T01:45:19.601Z,24.33
2023-03-18T01:47:49.925Z,25.77
2023-03-18T01:50:23.173Z,34.87
2023-03-18T01:52:56.405Z,24.60
2023-03-18T01:55:28.388Z,30.00
2023-03-18T01:57:58.435Z,12.50
2023-03-18T02:00:28.582Z,34.73
2023-03-18T02:02:56.831Z,25.57
2023-03-18T02:05:27.959Z,35.70
2023-03-18T02:07:57.840Z,38.20
2023-03-18T02:10:29.081Z,30.33
2023-03-18T02:13:00.515Z,28.37
2023-03-18T02:15:30.850Z,41.30
2023-03-18T02:18:01.866Z,20.83
2023-03-18T02:20:52.845Z,38.77
2023-03-18T02:23:29.926Z,28.77
2023-03-18T02:26:07.255Z,44.63
2023-03-18T02:28:39.786Z,38.63
2023-03-18T02:31:13.835Z,38.87
2023-03-18T02:33:43.892Z,32.73
2023-03-18T02:36:19.262Z,31.97
2023-03-18T02:38:48.685Z,38.47
2023-03-18T02:41:19.319Z,38.53
2023-03-18T02:43:50.434Z,39.73
2023-03-18T02:46:33.088Z,41.77
2023-03-18T02:49:04.692Z,59.10
2023-03-18T02:51:33.330Z,30.47
2023-03-18T02:54:07.001Z,41.10
2023-03-18T02:56:35.492Z,45.83
2023-03-18T02:59:05.765Z,48.60
2023-03-18T03:01:35.364Z,43.70
2023-03-18T03:04:04.303Z,48.53
2023-03-18T03:06:32.817Z,33.23
2023-03-18T03:09:02.847Z,54.40
2023-03-18T03:11:31.273Z,49.43
2023-03-18T03:13:59.478Z,57.37
2023-03-18T03:16:29.620Z,31.60
2023-03-18T03:18:57.787Z,48.80
2023-03-18T03:21:26.666Z,33.43
2023-03-18T03:23:55.622Z,42.10
2023-03-18T03:26:23.984Z,46.20
2023-03-18T03:28:52.534Z,48.60
2023-03-18T03:31:21.030Z,48.00
2023-03-18T03:33:50.799Z,36.73
2023-03-18T03:36:19.135Z,44.77
2023-03-18T03:38:48.429Z,41.43
2023-03-18T03:41:17.159Z,45.00
2023-03-18T03:43:45.859Z,44.87
2023-03-18T03:46:14.620Z,38.93
2023-03-18T03:48:42.938Z,46.80
2023-03-18T03:51:12.544Z,40.00
2023-03-18T03:53:41.508Z,50.70
2023-03-18T03:56:11.482Z,33.33
2023-03-18T03:58:40.179Z,42.73
2023-03-18T04:01:09.004Z,49.93
2023-03-18T04:03:37.153Z,42.97
2023-03-18T04:06:06.967Z,41.77
2023-03-18T04:08:37.019Z,41.60
2023-03-18T04:11:05.700Z,40.27
2023-03-18T04:13:34.198Z,43.07
2023-03-18T04:16:03.098Z,48.63
2023-03-18T04:18:31.890Z,38.10
2023-03-18T04:21:00.628Z,45.57
2023-03-18T04:23:29.255Z,44.63
2023-03-18T04:25:59.275Z,45.93
2023-03-18T04:28:27.529Z,27.60
2023-03-18T04:30:56.080Z,36.23
2023-03-18T04:33:24.646Z,41.50
2023-03-18T04:35:53.524Z,44.87
2023-03-18T04:38:22.178Z,40.20
2023-03-18T04:40:50.880Z,35.43
2023-03-18T04:43:20.379Z,38.03
2023-03-18T04:45:49.543Z,29.97
2023-03-18T04:48:18.246Z,51.07
2023-03-18T04:50:46.539Z,34.27
2023-03-18T04:53:14.855Z,36.00
2023-03-18T04:55:44.139Z,49.87
2023-03-18T04:58:12.380Z,57.50
2023-03-18T05:00:42.996Z,44.87
2023-03-18T05:03:12.054Z,42.00
2023-03-18T05:05:40.213Z,43.17
2023-03-18T05:08:09.041Z,48.00
2023-03-18T05:10:38.467Z,56.33
2023-03-18T05:13:06.908Z,52.80
2023-03-18T05:15:36.160Z,45.00
2023-03-18T05:18:06.121Z,60.70
2023-03-18T05:20:34.379Z,47.13
2023-03-18T05:23:03.428Z,45.47
2023-03-18T05:25:32.291Z,43.17
2023-03-18T05:28:00.550Z,57.50
2023-03-18T05:30:29.183Z,52.10
2023-03-18T05:32:58.543Z,51.73
2023-03-18T05:35:28.195Z,49.60
2023-03-18T05:37:56.819Z,60.13
2023-03-18T05:40:25.032Z,61.27
2023-03-18T05:42:56.494Z,59.27
2023-03-18T05:45:25.602Z,45.00
2023-03-18T05:47:53.831Z,44.03
2023-03-18T05:50:31.923Z,49.20
2023-03-18T05:53:00.815Z,36.37
2023-03-18T05:55:29.568Z,38.93
2023-03-18T05:57:59.131Z,51.30
2023-03-18T06:00:30.064Z,44.63
2023-03-18T06:02:59.524Z,41.63
2023-03-18T06:05:29.139Z,54.57
2023-03-18T06:07:59.513Z,53.27
2023-03-18T06:10:28.281Z,42.20
2023-03-18T06:12:57.240Z,53.50
2023-03-18T06:15:25.776Z,60.23
2023-03-18T06:17:54.109Z,55.40
2023-03-18T06:20:23.606Z,54.87
2023-03-18T06:22:51.933Z,55.10
2023-03-18T06:25:23.337Z,31.13
2023-03-18T06:27:52.384Z,50.40
2023-03-18T06:30:20.881Z,53.90
2023-03-18T06:32:49.734Z,35.93
2023-03-18T06:35:19.036Z,52.97
2023-03-18T06:37:47.437Z,43.07
2023-03-18T06:40:15.699Z,51.87
2023-03-18T06:42:45.763Z,77.67
2023-03-18T06:45:15.326Z,49.87
2023-03-18T06:47:43.576Z,49.83
2023-03-18T06:50:13.761Z,49.70
2023-03-18T06:52:42.373Z,53.50
2023-03-18T06:55:11.030Z,48.37
2023-03-18T06:57:40.390Z,55.87
2023-03-18T07:00:11.606Z,47.07
2023-03-18T07:02:40.390Z,41.77
2023-03-18T07:05:10.191Z,49.37
2023-03-18T07:07:38.728Z,50.93
2023-03-18T07:10:09.244Z,31.93
2023-03-18T07:12:37.476Z,60.90
2023-03-18T07:15:06.408Z,49.40
2023-03-18T07:17:37.368Z,47.13
2023-03-18T07:20:07.631Z,59.50
2023-03-18T07:22:37.395Z,43.87
2023-03-18T07:25:06.292Z,59.27
2023-03-18T07:27:35.126Z,57.03
2023-03-18T07:30:03.655Z,49.67
2023-03-18T07:32:31.982Z,44.20
2023-03-18T07:35:03.424Z,46.07
2023-03-18T07:37:31.790Z,44.13
2023-03-18T07:40:00.010Z,52.97
2023-03-18T07:42:28.942Z,32.70
2023-03-18T07:44:58.086Z,40.63
2023-03-18T07:47:26.233Z,41.07
2023-03-18T07:49:54.793Z,43.03
2023-03-18T07:52:24.804Z,32.37
2023-03-18T07:54:53.084Z,47.97
2023-03-18T07:57:21.791Z,45.83
2023-03-18T07:59:50.612Z,47.77
2023-03-18T08:02:18.822Z,48.60
2023-03-18T08:04:47.716Z,57.77
2023-03-18T08:07:17.224Z,44.57
2023-03-18T08:09:47.032Z,36.57
2023-03-18T08:12:18.819Z,36.47
2023-03-18T08:14:48.353Z,37.50
2023-03-18T08:17:16.491Z,39.73
2023-03-18T08:19:45.179Z,51.37
2023-03-18T08:22:14.525Z,47.03
2023-03-18T08:24:45.156Z,56.03
2023-03-18T08:27:15.263Z,68.07
2023-03-18T08:29:43.480Z,42.13
2023-03-18T08:32:12.727Z,49.00
2023-03-18T08:34:41.855Z,55.83
2023-03-18T08:37:10.268Z,43.90
2023-03-18T08:39:38.521Z,44.57
2023-03-18T08:42:07.839Z,52.47
2023-03-18T08:44:37.602Z,42.10
2023-03-18T08:47:06.704Z,31.17
2023-03-18T08:49:35.597Z,52.70
2023-03-18T08:52:04.232Z,43.80
2023-03-18T08:54:32.448Z,36.83
2023-03-18T08:57:01.561Z,49.00
2023-03-18T08:59:29.769Z,38.47
2023-03-18T09:01:59.341Z,51.30
2023-03-18T09:04:28.049Z,48.53
2023-03-18T09:06:56.854Z,43.30
2023-03-18T09:09:40.844Z,48.47
2023-03-18T09:12:12.841Z,59.70
2023-03-18T09:14:42.490Z,49.70
2023-03-18T09:17:13.420Z,49.57
2023-03-18T09:19:41.542Z,52.03
2023-03-18T09:22:10.359Z,47.27
2023-03-18T09:24:39.684Z,44.17
2023-03-18T09:27:08.050Z,39.83
2023-03-18T09:29:36.674Z,40.53
2023-03-18T09:32:06.212Z,54.73
2023-03-18T09:34:36.223Z,54.77
2023-03-18T09:37:04.885Z,39.47
2023-03-18T09:39:33.486Z,34.60
2023-03-18T09:42:22.820Z,35.47
2023-03-18T09:44:56.636Z,38.00
2023-03-18T09:48:01.263Z,43.50
2023-03-18T09:50:39.819Z,29.50
2023-03-18T09:53:18.100Z,34.03
2023-03-18T09:55:49.849Z,35.83
2023-03-18T09:58:23.589Z,34.43
2023-03-18T10:00:55.472Z,36.10
2023-03-18T10:03:35.662Z,33.80
2023-03-18T10:06:09.228Z,36.57
2023-03-18T10:08:46.494Z,31.03
2023-03-18T10:11:22.103Z,16.07
2023-03-18T10:14:16.669Z,34.47
2023-03-18T10:16:54.621Z,38.70
2023-03-18T10:19:23.794Z,22.70
2023-03-18T10:22:05.376Z,39.57
2023-03-18T10:24:39.187Z,36.53
2023-03-18T10:27:19.220Z,32.27
2023-03-18T10:29:51.903Z,30.67
2023-03-18T10:32:46.348Z,34.93
2023-03-18T10:35:27.145Z,32.37
2023-03-18T10:38:04.945Z,19.50
2023-03-18T10:40:37.309Z,32.80
2023-03-18T10:43:11.337Z,37.83
2023-03-18T10:45:39.745Z,23.43
2023-03-18T10:48:13.980Z,32.97
2023-03-18T10:50:44.943Z,30.07
2023-03-18T10:53:22.158Z,24.60
2023-03-18T10:55:58.800Z,26.37
2023-03-18T10:58:29.147Z,39.23
2023-03-18T11:00:57.623Z,25.37
2023-03-18T11:03:28.394Z,25.60
2023-03-18T11:05:57.907Z,25.23
2023-03-18T11:08:34.479Z,28.37
2023-03-18T11:11:24.218Z,16.30
2023-03-18T11:13:54.021Z,32.80
2023-03-18T11:16:39.686Z,35.70
2023-03-18T11:19:29.042Z,41.37
2023-03-18T11:22:19.911Z,31.50
2023-03-18T11:25:03.441Z,27.40
2023-03-18T11:27:39.600Z,20.60
2023-03-18T11:30:33.250Z,25.07
2023-03-18T11:33:07.312Z,32.00
2023-03-18T11:35:41.942Z,18.80
2023-03-18T11:38:17.388Z,38.23
2023-03-18T11:40:47.450Z,38.93
2023-03-18T11:43:19.989Z,31.57
2023-03-18T11:45:52.420Z,45.70
2023-03-18T11:48:29.833Z,34.27
2023-03-18T11:51:12.133Z,32.67
2023-03-18T11:53:52.526Z,46.67
2023-03-18T11:56:31.718Z,24.13
2023-03-18T11:59:29.491Z,46.60
2023-03-18T12:02:13.898Z,25.57
2023-03-18T12:04:56.882Z,38.43
2023-03-18T12:07:38.771Z,30.87
2023-03-18T12:10:20.062Z,44.00
2023-03-18T12:13:03.974Z,41.27
2023-03-18T12:15:43.897Z,33.50
2023-03-18T12:18:24.358Z,40.70
2023-03-18T12:20:54.243Z,30.87
2023-03-18T12:23:54.782Z,42.17
2023-03-18T12:26:31.713Z,37.30
2023-03-18T12:29:34.155Z,47.23
2023-03-18T12:32:15.040Z,48.20
2023-03-18T12:35:16.131Z,42.97
2023-03-18T12:37:55.506Z,41.93
2023-03-18T12:40:47.241Z,53.23
2023-03-18T12:43:31.372Z,48.87
2023-03-18T12:46:05.373Z,44.17
2023-03-18T12:48:44.275Z,52.07
2023-03-18T12:51:16.345Z,36.53
2023-03-18T12:53:48.425Z,58.53
2023-03-18T12:56:21.531Z,45.30
2023-03-18T12:58:53.742Z,39.27
2023-03-18T13:01:28.140Z,45.90
2023-03-18T13:04:00.392Z,43.73
2023-03-18T13:06:35.511Z,48.50
2023-03-18T13:09:08.648Z,64.80
2023-03-18T13:11:55.699Z,58.60
2023-03-18T13:14:31.534Z,57.97
2023-03-18T13:17:02.156Z,30.83
2023-03-18T13:19:32.072Z,56.03
2023-03-18T13:22:12.662Z,58.77
2023-03-18T13:24:52.741Z,51.20
2023-03-18T13:27:40.889Z,51.57
2023-03-18T13:30:19.461Z,51.37
2023-03-18T13:33:23.291Z,57.40
2023-03-18T13:36:10.550Z,57.30
2023-03-18T13:39:12.606Z,45.63
2023-03-18T13:42:05.483Z,54.17
2023-03-18T13:44:39.656Z,55.13
2023-03-18T13:47:10.395Z,49.00
2023-03-18T13:49:41.694Z,42.70
2023-03-18T13:52:25.572Z,47.20
2023-03-18T13:54:54.462Z,49.37
2023-03-18T13:57:37.112Z,45.03
2023-03-18T14:00:26.918Z,54.60
2023-03-18T14:03:19.483Z,44.97
2023-03-18T14:05:50.896Z,56.07
2023-03-18T14:08:46.222Z,52.87
2023-03-18T14:11:50.030Z,45.43
2023-03-18T14:14:58.245Z,47.67
2023-03-18T14:17:46.111Z,55.17
2023-03-18T14:20:27.265Z,52.00
2023-03-18T14:22:58.379Z,55.67
2023-03-18T14:25:42.915Z,51.27
2023-03-18T14:28:21.965Z,49.73
2023-03-18T14:30:58.705Z,53.67
2023-03-18T14:33:49.380Z,45.57
2023-03-18T14:36:18.869Z,46.50
2023-03-18T14:38:56.902Z,57.93
2023-03-18T14:41:29.715Z,48.50
2023-03-18T14:44:10.320Z,48.93
2023-03-18T14:46:43.914Z,48.97
2023-03-18T14:49:35.852Z,43.47
2023-03-18T14:52:07.844Z,42.97
2023-03-18T14:54:46.456Z,42.60
2023-03-18T14:57:16.244Z,53.07
2023-03-18T14:59:45.324Z,33.90
2023-03-18T15:02:24.195Z,37.83
2023-03-18T15:04:54.554Z,50.13
2023-03-18T15:07:29.849Z,48.83
2023-03-18T15:10:02.728Z,52.77
2023-03-18T15:12:31.541Z,55.23
2023-03-18T15:15:00.166Z,54.13
2023-03-18T15:17:28.582Z,44.33
2023-03-18T15:20:01.647Z,46.53
2023-03-18T15:22:32.478Z,49.80
2023-03-18T15:25:05.668Z,50.73
2023-03-18T15:27:36.549Z,61.37
2023-03-18T15:30:08.188Z,49.57
2023-03-18T15:32:46.420Z,59.17
2023-03-18T15:35:18.771Z,55.23
2023-03-18T15:37:48.171Z,53.37
2023-03-18T15:40:27.583Z,68.73
2023-03-18T15:42:57.850Z,60.13
2023-03-18T15:45:30.508Z,61.73
2023-03-18T15:48:05.790Z,67.27
2023-03-18T15:50:34.920Z,58.27
2023-03-18T15:53:17.752Z,48.63
2023-03-18T15:55:53.347Z,61.63
2023-03-18T15:58:25.472Z,61.70
2023-03-18T16:00:55.983Z,56.97
2023-03-18T16:03:25.995Z,55.20
2023-03-18T16:05:55.688Z,53.40
2023-03-18T16:08:24.841Z,66.97
2023-03-18T16:10:57.528Z,60.87
2023-03-18T16:13:28.268Z,50.20
2023-03-18T16:15:57.436Z,55.93
2023-03-18T16:18:25.967Z,63.87
2023-03-18T16:20:55.323Z,67.83
2023-03-18T16:23:23.576Z,57.83
2023-03-18T16:25:56.319Z,63.60
2023-03-18T16:28:26.657Z,60.27
2023-03-18T16:30:56.191Z,62.37
2023-03-18T16:33:26.247Z,91.27
2023-03-18T16:35:58.685Z,79.00
2023-03-18T16:38:28.569Z,66.23
2023-03-18T16:40:59.149Z,57.27
2023-03-18T16:43:29.105Z,72.30
2023-03-18T16:46:01.636Z,68.70
2023-03-18T16:48:29.954Z,78.87
2023-03-18T16:51:01.128Z,78.57
2023-03-18T16:53:32.191Z,80.00
2023-03-18T16:56:05.220Z,74.77
2023-03-18T16:58:36.460Z,66.90
2023-03-18T17:01:06.231Z,72.37
2023-03-18T17:03:36.341Z,78.33
2023-03-18T17:06:07.136Z,72.50
2023-03-18T17:08:36.609Z,77.33
2023-03-18T17:11:07.474Z,99.53
2023-03-18T17:13:38.717Z,75.97
2023-03-18T17:16:15.419Z,80.30
2023-03-18T17:18:44.186Z,97.80
2023-03-18T17:21:13.516Z,93.67
2023-03-18T17:23:42.885Z,87.80
2023-03-18T17:26:15.959Z,77.10
2023-03-18T17:28:46.865Z,102.40
2023-03-18T17:31:15.997Z,83.67
2023-03-18T17:33:44.562Z,85.77
2023-03-18T17:36:12.885Z,71.13
2023-03-18T17:38:41.144Z,66.57
2023-03-18T17:41:17.408Z,78.93
2023-03-18T17:43:45.618Z,88.77
2023-03-18T17:46:13.853Z,86.23
2023-03-18T17:48:42.816Z,91.53
2023-03-18T17:51:16.670Z,97.70
2023-03-18T17:53:48.348Z,93.27
2023-03-18T17:56:20.405Z,93.17
2023-03-18T17:58:50.535Z,99.83
2023-03-18T18:01:21.878Z,78.17
2023-03-18T18:03:50.060Z,104.27
2023-03-18T18:06:20.712Z,103.40
2023-03-18T18:08:49.184Z,90.53
2023-03-18T18:11:22.409Z,110.53
2023-03-18T18:13:51.627Z,117.20
2023-03-18T18:16:21.633Z,98.67
2023-03-18T18:18:50.281Z,102.17
2023-03-18T18:21:21.424Z,115.63
2023-03-18T18:23:50.220Z,112.53
2023-03-18T18:26:22.824Z,110.30
2023-03-18T18:28:52.797Z,96.20
2023-03-18T18:31:23.623Z,87.63
2023-03-18T18:33:52.633Z,92.70
2023-03-18T18:36:21.455Z,91.87
2023-03-18T18:38:50.820Z,100.20
2023-03-18T18:41:20.879Z,96.83
2023-03-18T18:43:49.484Z,89.53
2023-03-18T18:46:18.380Z,91.50
2023-03-18T18:48:49.433Z,90.77
2023-03-18T18:51:20.502Z,111.63
2023-03-18T18:53:49.563Z,98.20
2023-03-18T18:56:23.759Z,123.27
2023-03-18T18:58:53.377Z,95.47
2023-03-18T19:01:21.772Z,102.97
2023-03-18T19:03:50.406Z,100.90
2023-03-18T19:06:29.351Z,93.77
2023-03-18T19:08:59.265Z,108.63
2023-03-18T19:11:29.689Z,101.53
2023-03-18T19:14:17.361Z,96.53
2023-03-18T19:16:46.177Z,115.87
2023-03-18T19:19:15.196Z,108.13
2023-03-18T19:21:44.927Z,128.43
2023-03-18T19:24:26.910Z,149.63
2023-03-18T19:26:58.652Z,140.33
2023-03-18T19:29:27.979Z,109.17
2023-03-18T19:31:56.366Z,116.17
2023-03-18T19:34:25.479Z,98.40
2023-03-18T19:36:56.750Z,237.90
2023-03-18T19:39:27.805Z,109.57
2023-03-18T19:41:57.518Z,149.20
2023-03-18T19:44:27.338Z,158.23
2023-03-18T19:46:57.630Z,187.30
2023-03-18T19:49:28.448Z,108.97
2023-03-18T19:51:57.218Z,408.63
2023-03-18T19:54:29.954Z,171.87
2023-03-18T19:57:02.228Z,112.07
2023-03-18T19:59:38.782Z,110.20
2023-03-18T20:02:20.037Z,167.00
2023-03-18T20:04:49.519Z,229.27
2023-03-18T20:07:18.990Z,239.33
2023-03-18T20:09:47.889Z,362.90
2023-03-18T20:12:24.569Z,132.10
2023-03-18T20:14:53.225Z,259.97
2023-03-18T20:17:34.621Z,183.30
2023-03-18T20:20:03.137Z,351.17
2023-03-18T20:22:34.383Z,131.53
2023-03-18T20:25:03.612Z,445.93
2023-03-18T20:27:33.764Z,105.77
2023-03-18T20:30:02.156Z,102.60
2023-03-18T20:32:30.395Z,120.40
2023-03-18T20:34:58.634Z,112.23
2023-03-18T20:37:33.880Z,71.20
2023-03-18T20:40:02.777Z,171.83
2023-03-18T20:42:33.110Z,505.07
2023-03-18T20:45:01.437Z,219.37
2023-03-18T20:47:29.733Z,100.87
2023-03-18T20:49:57.966Z,109.90
2023-03-18T20:52:29.670Z,89.47
2023-03-18T20:54:58.492Z,88.10
2023-03-18T20:57:27.481Z,90.57
2023-03-18T20:59:57.639Z,92.13
2023-03-18T21:02:31.818Z,82.40
2023-03-18T21:05:02.145Z,107.47
2023-03-18T21:07:31.159Z,87.80
2023-03-18T21:10:00.019Z,125.13
2023-03-18T21:12:28.687Z,82.63
2023-03-18T21:14:58.693Z,120.13
2023-03-18T21:17:28.418Z,115.80
2023-03-18T21:20:11.185Z,89.77
2023-03-18T21:22:44.441Z,122.27
2023-03-18T21:25:20.755Z,113.20
2023-03-18T21:27:49.786Z,128.50
2023-03-18T21:30:22.329Z,262.33
2023-03-18T21:32:51.566Z,207.97
2023-03-18T21:35:21.870Z,90.23
2023-03-18T21:37:50.736Z,103.93
2023-03-18T21:40:21.594Z,170.57
2023-03-18T21:42:50.640Z,86.50
2023-03-18T21:45:23.857Z,100.77
2023-03-18T21:47:52.602Z,188.07
2023-03-18T21:50:24.025Z,115.67
2023-03-18T21:52:52.791Z,160.73
2023-03-18T21:55:22.027Z,129.73
2023-03-18T21:57:50.981Z,325.97
2023-03-18T22:00:22.486Z,512.47
2023-03-18T22:02:51.598Z,276.50
2023-03-18T22:05:21.861Z,291.67
2023-03-18T22:07:50.710Z,150.83
2023-03-18T22:10:22.365Z,258.33
2023-03-18T22:12:51.507Z,274.87
2023-03-18T22:15:38.906Z,300.70
2023-03-18T22:18:08.511Z,216.60
2023-03-18T22:20:37.269Z,180.20
2023-03-18T22:23:14.633Z,299.13
2023-03-18T22:25:43.513Z,404.63
2023-03-18T22:28:12.941Z,146.93
2023-03-18T22:30:44.987Z,189.53
2023-03-18T22:33:22.241Z,84.70
2023-03-18T22:35:50.669Z,144.83
2023-03-18T22:38:20.972Z,452.73
2023-03-18T22:40:52.153Z,145.63
2023-03-18T22:43:31.876Z,262.37
2023-03-18T22:46:02.902Z,186.80
2023-03-18T22:48:31.130Z,233.93
2023-03-18T22:51:00.461Z,118.37
2023-03-18T22:53:32.075Z,94.83
2023-03-18T22:56:06.680Z,89.67
2023-03-18T22:58:35.591Z,138.33
2023-03-18T23:01:05.761Z,182.43
2023-03-18T23:03:36.001Z,251.73
2023-03-18T23:06:05.767Z,307.93
2023-03-18T23:08:34.202Z,359.17
2023-03-18T23:11:03.469Z,305.67
2023-03-18T23:13:36.662Z,133.70
2023-03-18T23:16:08.433Z,269.27
2023-03-18T23:18:37.563Z,369.57
2023-03-18T23:21:06.869Z,520.90
2023-03-18T23:23:35.184Z,147.87
2023-03-18T23:26:03.750Z,129.57
2023-03-18T23:28:38.458Z,242.13
2023-03-18T23:31:14.339Z,339.77
2023-03-18T23:33:43.591Z,201.83
2023-03-18T23:36:12.567Z,274.80
2023-03-18T23:38:41.467Z,446.40
2023-03-18T23:41:10.280Z,447.47
2023-03-18T23:43:38.521Z,249.90
2023-03-18T23:46:07.856Z,360.60
2023-03-18T23:48:37.977Z,624.17
2023-03-18T23:51:06.509Z,457.63
2023-03-18T23:53:34.732Z,403.53
2023-03-18T23:56:03.638Z,402.13
2023-03-18T23:58:31.799Z,433.80
